Map

Track Data

SID SEASON NUMBER BASIN SUBBASIN NAME ISO_TIME NATURE LAT LON WMO_WIND WMO_PRES WMO_AGENCY TRACK_TYPE DIST2LAND LANDFALL IFLAG USA_AGENCY USA_ATCF_ID USA_LAT USA_LON USA_RECORD USA_STATUS USA_WIND USA_PRES USA_SSHS USA_R34_NE USA_R34_SE USA_R34_SW USA_R34_NW USA_R50_NE USA_R50_SE USA_R50_SW USA_R50_NW USA_R64_NE USA_R64_SE USA_R64_SW USA_R64_NW USA_POCI USA_ROCI USA_RMW USA_EYE TOKYO_LAT TOKYO_LON TOKYO_GRADE TOKYO_WIND TOKYO_PRES TOKYO_R50_DIR TOKYO_R50_LONG TOKYO_R50_SHORT TOKYO_R30_DIR TOKYO_R30_LONG TOKYO_R30_SHORT TOKYO_LAND CMA_LAT CMA_LON CMA_CAT CMA_WIND CMA_PRES HKO_LAT HKO_LON HKO_CAT HKO_WIND HKO_PRES NEWDELHI_LAT NEWDELHI_LON NEWDELHI_GRADE NEWDELHI_WIND NEWDELHI_PRES NEWDELHI_CI NEWDELHI_DP NEWDELHI_POCI REUNION_LAT REUNION_LON REUNION_TYPE REUNION_WIND REUNION_PRES REUNION_TNUM REUNION_CI REUNION_RMW REUNION_R34_NE REUNION_R34_SE REUNION_R34_SW REUNION_R34_NW REUNION_R50_NE REUNION_R50_SE REUNION_R50_SW REUNION_R50_NW REUNION_R64_NE REUNION_R64_SE REUNION_R64_SW REUNION_R64_NW BOM_LAT BOM_LON BOM_TYPE BOM_WIND BOM_PRES BOM_TNUM BOM_CI BOM_RMW BOM_R34_NE BOM_R34_SE BOM_R34_SW BOM_R34_NW BOM_R50_NE BOM_R50_SE BOM_R50_SW BOM_R50_NW BOM_R64_NE BOM_R64_SE BOM_R64_SW BOM_R64_NW BOM_ROCI BOM_POCI BOM_EYE BOM_POS_METHOD BOM_PRES_METHOD NADI_LAT NADI_LON NADI_CAT NADI_WIND NADI_PRES WELLINGTON_LAT WELLINGTON_LON WELLINGTON_WIND WELLINGTON_PRES DS824_LAT DS824_LON DS824_STAGE DS824_WIND DS824_PRES TD9636_LAT TD9636_LON TD9636_STAGE TD9636_WIND TD9636_PRES TD9635_LAT TD9635_LON TD9635_WIND TD9635_PRES TD9635_ROCI NEUMANN_LAT NEUMANN_LON NEUMANN_CLASS NEUMANN_WIND NEUMANN_PRES MLC_LAT MLC_LON MLC_CLASS MLC_WIND MLC_PRES USA_GUST BOM_GUST BOM_GUST_PER REUNION_GUST REUNION_GUST_PER USA_SEAHGT USA_SEARAD_NE USA_SEARAD_SE USA_SEARAD_SW USA_SEARAD_NW STORM_SPEED STORM_DIR
1938082S15159 1938 22 SP EA NOT_NAMED 1938-03-22 23:00:00 NR -14.9500 158.650 bom main 569 584 ______O___O___ -1 -14.9000 158.700 -15.0000 158.600 7 9 242
1938082S15159 1938 22 SP EA NOT_NAMED 1938-03-23 00:00:00 TS -15.0179 158.520 main 590 590 ______P__OP___ -1 -14.9795 158.541 -15.0000 158.600 TC -15.0652 158.460 7 9 243
1938082S15159 1938 22 SP EA NOT_NAMED 1938-03-23 03:00:00 TS -15.2348 158.070 main 632 632 ______P__PP___ -1 -15.2168 158.066 -15.2222 158.124 TC -15.2613 158.038 7 10 244
1938082S15159 1938 22 SP EA NOT_NAMED 1938-03-23 06:00:00 TS -15.4512 157.618 main 681 681 ______P__PP___ -1 -15.4502 157.596 -15.4417 157.653 TC -15.4594 157.614 7 10 244
1938082S15159 1938 22 SP EA NOT_NAMED 1938-03-23 09:00:00 TS -15.6653 157.171 main 718 718 ______P__PP___ -1 -15.6777 157.137 -15.6565 157.190 TC -15.6617 157.187 7 10 243
1938082S15159 1938 22 SP EA NOT_NAMED 1938-03-23 11:00:00 TS -15.8071 156.876 main 741 741 ______P__PO___ -1 -15.8249 156.840 -15.7962 156.889 TC -15.8000 156.900 7 10 243
1938082S15159 1938 22 SP EA NOT_NAMED 1938-03-23 12:00:00 TS -15.8774 156.731 main 761 761 ______P__PP___ -1 -15.8971 156.695 -15.8649 156.742 TC -15.8703 156.756 7 9 243
1938082S15159 1938 22 SP EA NOT_NAMED 1938-03-23 15:00:00 TS -16.0848 156.305 main 800 800 ______P__PP___ -1 -16.1063 156.274 -16.0651 156.314 TC -16.0830 156.326 7 9 243
1938082S15159 1938 22 SP EA NOT_NAMED 1938-03-23 18:00:00 TS -16.2832 155.901 main 841 824 ______P__PP___ -1 -16.3035 155.881 -16.2555 155.910 TC -16.2906 155.912 7 8 243
1938082S15159 1938 22 SP EA NOT_NAMED 1938-03-23 21:00:00 TS -16.4683 155.529 main 824 800 ______P__PP___ -1 -16.4867 155.520 -16.4343 155.537 TC -16.4838 155.530 7 8 242
1938082S15159 1938 22 SP EA NOT_NAMED 1938-03-23 23:00:00 TS -16.5821 155.303 bom main 800 791 ______O__PO___ -1 -16.6000 155.300 -16.5463 155.308 TC -16.6000 155.300 7 7 242
1938082S15159 1938 22 SP EA NOT_NAMED 1938-03-24 00:00:00 TS -16.6356 155.197 main 791 752 ______P__OP___ -1 -16.6539 155.197 -16.6000 155.200 TC -16.6528 155.195 7 6 242
1938082S15159 1938 22 SP EA NOT_NAMED 1938-03-24 03:00:00 TS -16.7840 154.909 main 752 728 ______P__PP___ -1 -16.8050 154.912 -16.7516 154.902 TC -16.7953 154.913 7 6 241
1938082S15159 1938 22 SP EA NOT_NAMED 1938-03-24 06:00:00 TS -16.9176 154.655 main 728 695 ______P__PP___ -1 -16.9427 154.660 -16.8910 154.637 TC -16.9190 154.669 7 5 241
1938082S15159 1938 22 SP EA NOT_NAMED 1938-03-24 09:00:00 TS -17.0401 154.426 main 695 680 ______P__PP___ -1 -17.0697 154.433 -17.0205 154.401 TC -17.0300 154.445 7 5 241
1938082S15159 1938 22 SP EA NOT_NAMED 1938-03-24 11:00:00 TS -17.1174 154.283 main 680 671 ______P__PO___ -1 -17.1497 154.293 -17.1024 154.255 TC -17.1000 154.300 7 5 241
1938082S15159 1938 22 SP EA NOT_NAMED 1938-03-24 12:00:00 TS -17.1559 154.211 main 665 642 ______P__PP___ -1 -17.1887 154.225 -17.1424 154.185 TC -17.1366 154.222 7 5 241
1938082S15159 1938 22 SP EA NOT_NAMED 1938-03-24 15:00:00 TS -17.2675 154.001 main 642 618 ______P__PP___ -1 -17.3024 154.027 -17.2590 153.984 TC -17.2411 153.992 7 5 241
1938082S15159 1938 22 SP EA NOT_NAMED 1938-03-24 18:00:00 TS -17.3753 153.797 main 618 594 ______P__PP___ -1 -17.4136 153.833 -17.3727 153.791 TC -17.3398 153.768 7 4 241
1938082S15159 1938 22 SP EA NOT_NAMED 1938-03-24 21:00:00 TS -17.4820 153.594 main 594 585 ______P__PP___ -1 -17.5247 153.636 -17.4856 153.598 TC -17.4359 153.547 7 4 241
1938082S15159 1938 22 SP EA NOT_NAMED 1938-03-24 23:00:00 TS -17.5539 153.456 992 bom main 579 570 ______O__PO___ -1 -17.6000 153.500 992 4 -17.5616 153.467 TC -17.5000 153.400 7 5 242
1938082S15159 1938 22 SP EA NOT_NAMED 1938-03-25 00:00:00 TS -17.5910 153.380 main 570 537 ______P__OP___ -1 -17.6423 153.415 -17.6000 153.400 TC 45 992 -17.5308 153.325 7 5 244
1938082S15159 1938 22 SP EA NOT_NAMED 1938-03-25 03:00:00 TS -17.7057 153.135 main 537 513 ______P__PP___ -1 -17.7695 153.155 -17.7251 153.152 TC -17.6224 153.100 7 5 244
1938082S15159 1938 22 SP EA NOT_NAMED 1938-03-25 06:00:00 TS -17.8215 152.888 main 513 489 ______P__PP___ -1 -17.8968 152.889 -17.8502 152.900 TC -17.7173 152.875 7 5 244
1938082S15159 1938 22 SP EA NOT_NAMED 1938-03-25 09:00:00 TS -17.9403 152.640 main 481 466 ______P__PP___ -1 -18.0238 152.623 -17.9753 152.647 TC -17.8219 152.650 7 5 243
1938082S15159 1938 22 SP EA NOT_NAMED 1938-03-25 11:00:00 TS -18.0223 152.476 main 466 451 ______P__PO___ -1 -18.1081 152.448 -18.0587 152.480 TC -17.9000 152.500 7 5 242
1938082S15159 1938 22 SP EA NOT_NAMED 1938-03-25 12:00:00 TS -18.0650 152.394 main 451 427 ______P__PP___ -1 -18.1500 152.361 -18.1004 152.398 TC -17.9445 152.423 7 5 240
1938082S15159 1938 22 SP EA NOT_NAMED 1938-03-25 15:00:00 TS -18.1967 152.150 main 427 394 ______P__PP___ -1 -18.2751 152.107 -18.2254 152.155 TC -18.0896 152.189 7 5 240
1938082S15159 1938 22 SP EA NOT_NAMED 1938-03-25 18:00:00 TS -18.3312 151.915 main 394 364 ______P__PP___ -1 -18.3986 151.865 -18.3503 151.922 TC -18.2447 151.959 7 5 238
1938082S15159 1938 22 SP EA NOT_NAMED 1938-03-25 21:00:00 TS -18.4653 151.693 main 364 356 ______P__PP___ -1 -18.5202 151.639 -18.4752 151.702 TC -18.4005 151.739 7 5 237
1938082S15159 1938 22 SP EA NOT_NAMED 1938-03-25 23:00:00 TS -18.5528 151.555 bom main 349 341 ______O__PO___ -1 -18.6000 151.500 -18.5584 151.565 TC -18.5000 151.600 7 5 236
1938082S15159 1938 22 SP EA NOT_NAMED 1938-03-26 00:00:00 TS -18.5930 151.489 main 341 317 ______P__OP___ -1 -18.6353 151.436 -18.6000 151.500 TC -18.5438 151.531 7 4 237
1938082S15159 1938 22 SP EA NOT_NAMED 1938-03-26 03:00:00 TS -18.7106 151.296 main 317 293 ______P__PP___ -1 -18.7379 151.256 -18.7248 151.298 TC -18.6691 151.334 7 4 236
1938082S15159 1938 22 SP EA NOT_NAMED 1938-03-26 06:00:00 TS -18.8260 151.120 main 293 278 ______P__PP___ -1 -18.8379 151.094 -18.8497 151.111 TC -18.7903 151.154 7 4 234
1938082S15159 1938 22 SP EA NOT_NAMED 1938-03-26 09:00:00 TS -18.9422 150.960 main 278 263 ______P__PP___ -1 -18.9384 150.947 -18.9746 150.939 TC -18.9136 150.994 7 4 231
1938082S15159 1938 22 SP EA NOT_NAMED 1938-03-26 11:00:00 TS -19.0217 150.864 main 263 248 ______P__PO___ -1 -19.0072 150.856 -19.0579 150.834 TC -19.0000 150.900 7 4 228
1938082S15159 1938 22 SP EA NOT_NAMED 1938-03-26 12:00:00 TS -19.0629 150.817 main 248 233 ______P__PP___ -1 -19.0424 150.813 -19.0996 150.785 TC -19.0466 150.853 7 4 224
1938082S15159 1938 22 SP EA NOT_NAMED 1938-03-26 15:00:00 TS -19.1898 150.690 main 233 219 ______P__PP___ -1 -19.1526 150.691 -19.2247 150.652 TC -19.1920 150.727 7 3 221
1938082S15159 1938 22 SP EA NOT_NAMED 1938-03-26 18:00:00 TS -19.3218 150.581 main 219 198 ______P__PP___ -1 -19.2722 150.577 -19.3498 150.542 TC -19.3433 150.623 7 3 215
1938082S15159 1938 22 SP EA NOT_NAMED 1938-03-26 21:00:00 TS -19.4587 150.489 main 198 189 ______P__PP___ -1 -19.4039 150.469 -19.4749 150.457 TC -19.4974 150.542 7 3 209
1938082S15159 1938 22 SP EA NOT_NAMED 1938-03-26 23:00:00 TS -19.5528 150.439 bom main 184 184 ______O__PO___ -1 -19.5000 150.400 -19.5583 150.416 TC -19.6000 150.500 7 3 209
1938082S15159 1938 22 SP EA NOT_NAMED 1938-03-27 00:00:00 TS -19.6009 150.410 main 184 170 ______P__OP___ -1 -19.5540 150.354 -19.6000 150.400 TC -19.6488 150.474 7 3 208
1938082S15159 1938 22 SP EA NOT_NAMED 1938-03-27 03:00:00 TS -19.7475 150.331 main 170 160 ______P__PP___ -1 -19.7232 150.227 -19.7247 150.355 TC -19.7945 150.410 7 3 202
1938082S15159 1938 22 SP EA NOT_NAMED 1938-03-27 06:00:00 TS -19.8948 150.281 main 160 156 ______P__PP___ -1 -19.8929 150.132 -19.8496 150.338 TC -19.9419 150.374 7 3 192
1938082S15159 1938 22 SP EA NOT_NAMED 1938-03-27 08:00:00 TS -19.9918 150.270 bom main 156 156 ______O__PP___ -1 -20.0000 150.100 -19.9328 150.340 TC -20.0427 150.370 7 3 0
1938082S15159 1938 22 SP EA NOT_NAMED 1938-03-27 09:00:00 TS -20.0391 150.272 main 156 152 ______P__PP___ -1 -20.0485 150.096 -19.9744 150.346 TC -20.0942 150.375 7 3 171
1938082S15159 1938 22 SP EA NOT_NAMED 1938-03-27 11:00:00 TS -20.1327 150.292 main 152 149 ______P__PO___ -1 -20.1402 150.111 -20.0577 150.364 TC -20.2000 150.400 7 3 163
1938082S15159 1938 22 SP EA NOT_NAMED 1938-03-27 12:00:00 TS -20.1810 150.310 main 149 145 ______P__PP___ -1 -20.1836 150.129 -20.0994 150.377 TC -20.2599 150.423 7 3 155
1938082S15159 1938 22 SP EA NOT_NAMED 1938-03-27 15:00:00 TS -20.3259 150.391 main 153 147 ______P__PP___ -1 -20.3060 150.217 -20.2245 150.431 TC -20.4472 150.524 7 3 148
1938082S15159 1938 22 SP EA NOT_NAMED 1938-03-27 18:00:00 TS -20.4676 150.502 main 150 150 ______P__PP___ -1 -20.4196 150.344 -20.3496 150.503 TC -20.6337 150.660 7 4 140
1938082S15159 1938 22 SP EA NOT_NAMED 1938-03-27 21:00:00 TS -20.6022 150.632 main 155 155 ______P__PP___ -1 -20.5283 150.495 -20.4748 150.594 TC -20.8036 150.806 7 4 137
1938082S15159 1938 22 SP EA NOT_NAMED 1938-03-27 23:00:00 TS -20.6861 150.721 bom main 162 162 ______O__PO___ -1 -20.6000 150.600 -20.5583 150.663 TC -20.9000 150.900 7 3 136
1938082S15159 1938 22 SP EA NOT_NAMED 1938-03-28 00:00:00 TS -20.7238 150.756 main 172 169 ______P__OP___ -1 -20.6355 150.636 -20.6000 150.700 TC -20.9359 150.933 7 3 138
1938082S15159 1938 22 SP EA NOT_NAMED 1938-03-28 03:00:00 TS -20.8240 150.855 main 179 168 ______P__PP___ -1 -20.7381 150.749 -20.7133 150.789 TC -21.0206 151.025 7 3 135
1938082S15159 1938 22 SP EA NOT_NAMED 1938-03-28 06:00:00 TS -20.9161 150.961 main 170 159 ______P__PP___ -1 -20.8377 150.870 -20.8252 150.896 TC -21.0854 151.116 7 3 131
1938082S15159 1938 22 SP EA NOT_NAMED 1938-03-28 09:00:00 TS -21.0082 151.079 main 161 151 ______P__PP___ -1 -20.9374 151.001 -20.9381 151.019 TC -21.1490 151.219 7 3 129
1938082S15159 1938 22 SP EA NOT_NAMED 1938-03-28 11:00:00 TS -21.0735 151.168 main 154 154 ______P__PO___ -1 -21.0056 151.094 -21.0150 151.110 TC -21.2000 151.300 7 3 128
1938082S15159 1938 22 SP EA NOT_NAMED 1938-03-28 12:00:00 TS -21.1095 151.215 main 154 147 ______P__PP___ -1 -21.0405 151.143 -21.0543 151.159 TC -21.2337 151.343 7 4 129
1938082S15159 1938 22 SP EA NOT_NAMED 1938-03-28 15:00:00 TS -21.2239 151.368 main 152 142 ______P__PP___ -1 -21.1503 151.299 -21.1762 151.317 TC -21.3453 151.488 7 4 128
1938082S15159 1938 22 SP EA NOT_NAMED 1938-03-28 18:00:00 TS -21.3488 151.540 main 148 144 ______P__PP___ -1 -21.2699 151.471 -21.3062 151.493 TC -21.4703 151.657 7 4 127
1938082S15159 1938 22 SP EA NOT_NAMED 1938-03-28 21:00:00 TS -21.4850 151.734 main 144 144 ______P__PP___ -1 -21.4027 151.662 -21.4467 151.687 TC -21.6056 151.853 7 5 127
1938082S15159 1938 22 SP EA NOT_NAMED 1938-03-28 23:00:00 TS -21.5824 151.876 bom main 151 151 ______O__PO___ -1 -21.5000 151.800 -21.5473 151.827 TC -21.7000 152.000 7 5 126
1938082S15159 1938 22 SP EA NOT_NAMED 1938-03-29 00:00:00 TS -21.6310 151.950 main 159 152 ______P__OP___ -1 -21.5475 151.870 -21.6000 151.900 TC -21.7455 152.081 7 5 123
1938082S15159 1938 22 SP EA NOT_NAMED 1938-03-29 03:00:00 TS -21.7768 152.194 main 164 164 ______P__PP___ -1 -21.6976 152.095 -21.7459 152.140 TC -21.8869 152.346 7 6 123
1938082S15159 1938 22 SP EA NOT_NAMED 1938-03-29 06:00:00 TS -21.9323 152.458 main 187 183 ______P__PP___ -1 -21.8603 152.339 -21.9011 152.403 TC -22.0356 152.631 7 6 123
1938082S15159 1938 22 SP EA NOT_NAMED 1938-03-29 09:00:00 TS -22.0992 152.733 main 200 200 ______P__PP___ -1 -22.0373 152.600 -22.0686 152.682 TC -22.1918 152.918 7 6 124
1938082S15159 1938 22 SP EA NOT_NAMED 1938-03-29 11:00:00 TS -22.2176 152.919 main 218 218 ______P__PO___ -1 -22.1640 152.783 -22.1887 152.874 TC -22.3000 153.100 7 6 125
1938082S15159 1938 22 SP EA NOT_NAMED 1938-03-29 12:00:00 TS -22.2768 153.010 main 227 227 ______P__PP___ -1 -22.2302 152.877 -22.2516 152.971 TC -22.3487 153.181 7 6 126
1938082S15159 1938 22 SP EA NOT_NAMED 1938-03-29 15:00:00 TS -22.4639 153.281 main 235 233 ______P__PP___ -1 -22.4406 153.168 -22.4530 153.263 TC -22.4980 153.411 7 6 128
1938082S15159 1938 22 SP EA NOT_NAMED 1938-03-29 18:00:00 TS -22.6693 153.552 main 236 218 ______P__PP___ -1 -22.6702 153.472 -22.6761 153.553 TC -22.6616 153.631 7 7 131
1938082S15159 1938 22 SP EA NOT_NAMED 1938-03-29 21:00:00 TS -22.8989 153.823 main 218 202 ______P__PP___ -1 -22.9207 153.786 -22.9240 153.834 TC -22.8520 153.850 7 7 134
1938082S15159 1938 22 SP EA NOT_NAMED 1938-03-29 23:00:00 TS -23.0682 154.005 bom main 202 202 ______O__PO___ -1 -23.1000 154.000 -23.1047 154.014 TC -23.0000 154.000 7 7 135
1938082S15159 1938 22 SP EA NOT_NAMED 1938-03-30 00:00:00 TS -23.1573 154.100 main 196 186 ______P__OP___ -1 -23.1873 154.117 -23.2000 154.100 TC -23.0845 154.084 7 8 137
1938082S15159 1938 22 SP EA NOT_NAMED 1938-03-30 03:00:00 TS -23.4460 154.387 main 192 180 ______P__PP___ -1 -23.4659 154.474 -23.5062 154.346 TC -23.3660 154.341 7 8 140
1938082S15159 1938 22 SP EA NOT_NAMED 1938-03-30 06:00:00 TS -23.7631 154.660 main 180 173 ______P__PP___ -1 -23.7745 154.808 -23.8399 154.572 TC -23.6750 154.600 7 8 143
1938082S15159 1938 22 SP EA NOT_NAMED 1938-03-30 08:00:00 TS -23.9876 154.827 bom main 176 176 ______O__PP___ -1 -24.0000 155.000 -24.0757 154.715 TC -23.8870 154.767 7 8 147
1938082S15159 1938 22 SP EA NOT_NAMED 1938-03-30 09:00:00 TS -24.1046 154.901 main 179 175 ______P__PP___ -1 -24.1240 155.071 -24.1972 154.783 TC -23.9927 154.848 7 8 152
1938082S15159 1938 22 SP EA NOT_NAMED 1938-03-30 11:00:00 TS -24.3453 155.034 main 179 174 ______P__PO___ -1 -24.3893 155.184 -24.4466 154.917 TC -24.2000 155.000 7 8 154
1938082S15159 1938 22 SP EA NOT_NAMED 1938-03-30 12:00:00 TS -24.4652 155.091 main 180 177 ______P__PP___ -1 -24.5289 155.228 -24.5743 154.981 TC -24.2924 155.064 7 8 158
1938082S15159 1938 22 SP EA NOT_NAMED 1938-03-30 15:00:00 TS -24.8318 155.245 main 182 182 ______P__PP___ -1 -24.9652 155.329 -24.9671 155.169 TC -24.5633 155.236 7 8 160
1938082S15159 1938 22 SP EA NOT_NAMED 1938-03-30 18:00:00 TS -25.2041 155.386 main 202 202 ______P__PP___ -1 -25.4088 155.410 -25.3716 155.350 TC -24.8319 155.398 7 8 160
1938082S15159 1938 22 SP EA NOT_NAMED 1938-03-30 21:00:00 TS -25.5570 155.535 main 221 221 ______P__PP___ -1 -25.8361 155.508 -25.7840 155.526 TC -25.1076 155.569 7 7 157
1938082S15159 1938 22 SP EA NOT_NAMED 1938-03-30 23:00:00 TS -25.7722 155.648 bom main 238 238 ______O__PO___ -1 -26.1000 155.600 -26.0612 155.642 TC -25.3000 155.700 7 7 151
1938082S15159 1938 22 SP EA NOT_NAMED 1938-03-31 00:00:00 TS -25.8554 155.714 main 251 251 ______P__OP___ -1 -26.2232 155.658 -26.2000 155.700 TC -25.4016 155.772 7 7 144
1938082S15159 1938 22 SP EA NOT_NAMED 1938-03-31 03:00:00 NR -26.1374 155.945 main 278 278 ______P___P___ -1 -26.5576 155.882 TC -25.7172 156.008 7 7 142
1938082S15159 1938 22 SP EA NOT_NAMED 1938-03-31 06:00:00 NR -26.4446 156.224 main 307 304 ______P___P___ -1 -26.8446 156.173 TC -26.0447 156.276 7 8 138
1938082S15159 1938 22 SP EA NOT_NAMED 1938-03-31 09:00:00 NR -26.7343 156.549 main 328 328 ______P___P___ -1 -27.0908 156.519 TC -26.3778 156.578 7 8 133
1938082S15159 1938 22 SP EA NOT_NAMED 1938-03-31 11:00:00 NR -26.9178 156.789 main 346 346 ______P___O___ -1 -27.2357 156.777 TC -26.6000 156.800 7 9 130
1938082S15159 1938 22 SP EA NOT_NAMED 1938-03-31 12:00:00 NR -27.0068 156.915 main 351 351 ______P___P___ -1 -27.3030 156.913 TC -26.7105 156.917 7 9 126
1938082S15159 1938 22 SP EA NOT_NAMED 1938-03-31 15:00:00 NR -27.2636 157.318 main 377 377 ______P___P___ -1 -27.4880 157.344 TC -27.0392 157.292 7 9 124
1938082S15159 1938 22 SP EA NOT_NAMED 1938-03-31 18:00:00 NR -27.5083 157.748 main 410 410 ______P___P___ -1 -27.6525 157.802 TC -27.3642 157.694 7 9 122
1938082S15159 1938 22 SP EA NOT_NAMED 1938-03-31 21:00:00 NR -27.7449 158.196 main 454 453 ______P___P___ -1 -27.8034 158.278 TC -27.6864 158.115 7 9 120
1938082S15159 1938 22 SP EA NOT_NAMED 1938-03-31 23:00:00 NR -27.9000 158.500 bom main 481 ______O___O___ -1 -27.9000 158.600 TC -27.9000 158.400 7 9 120

Digital Typhoon Data and Search

About IBTrACS Database

This database is a web-friendly format of International Best Track Archive for Climate Stewardship (IBTrACS), a global best track data archive curated by NOAA dating back to 1842.

Updated: 2021-11-26